sensor_id;sensor_type;location;lat;lon;timestamp;P1;durP1;ratioP1;P2;durP2;ratioP2
48363;SDS011;34170;54.364;18.582;2022-07-21T00:00:29;7.07;;;4.28;;
48363;SDS011;34170;54.364;18.582;2022-07-21T00:03:06;7.07;;;4.35;;
48363;SDS011;34170;54.364;18.582;2022-07-21T00:05:34;7.10;;;3.85;;
48363;SDS011;34170;54.364;18.582;2022-07-21T00:08:01;7.70;;;4.93;;
48363;SDS011;34170;54.364;18.582;2022-07-21T00:10:28;9.73;;;4.97;;
48363;SDS011;34170;54.364;18.582;2022-07-21T00:12:56;6.72;;;4.22;;
48363;SDS011;34170;54.364;18.582;2022-07-21T00:15:25;5.55;;;4.00;;
48363;SDS011;34170;54.364;18.582;2022-07-21T00:17:54;7.35;;;3.97;;
48363;SDS011;34170;54.364;18.582;2022-07-21T00:20:21;5.90;;;4.28;;
48363;SDS011;34170;54.364;18.582;2022-07-21T00:22:49;8.65;;;5.57;;
48363;SDS011;34170;54.364;18.582;2022-07-21T00:25:16;10.30;;;4.60;;
48363;SDS011;34170;54.364;18.582;2022-07-21T00:27:44;5.30;;;3.85;;
48363;SDS011;34170;54.364;18.582;2022-07-21T00:30:11;7.20;;;4.55;;
48363;SDS011;34170;54.364;18.582;2022-07-21T00:32:39;5.68;;;3.80;;
48363;SDS011;34170;54.364;18.582;2022-07-21T00:35:07;6.57;;;4.10;;
48363;SDS011;34170;54.364;18.582;2022-07-21T00:37:35;5.50;;;4.35;;
48363;SDS011;34170;54.364;18.582;2022-07-21T00:40:04;6.68;;;4.18;;
48363;SDS011;34170;54.364;18.582;2022-07-21T00:42:33;6.78;;;4.70;;
48363;SDS011;34170;54.364;18.582;2022-07-21T00:45:04;7.20;;;4.63;;
48363;SDS011;34170;54.364;18.582;2022-07-21T00:47:34;6.15;;;4.25;;
48363;SDS011;34170;54.364;18.582;2022-07-21T00:50:03;7.00;;;4.10;;
48363;SDS011;34170;54.364;18.582;2022-07-21T00:52:33;7.68;;;4.05;;
48363;SDS011;34170;54.364;18.582;2022-07-21T00:55:01;6.38;;;3.97;;
48363;SDS011;34170;54.364;18.582;2022-07-21T00:57:29;10.48;;;4.70;;
48363;SDS011;34170;54.364;18.582;2022-07-21T00:59:56;6.55;;;4.32;;
48363;SDS011;34170;54.364;18.582;2022-07-21T01:02:24;6.10;;;4.22;;
48363;SDS011;34170;54.364;18.582;2022-07-21T01:04:53;7.22;;;4.45;;
48363;SDS011;34170;54.364;18.582;2022-07-21T01:07:21;7.80;;;4.93;;
48363;SDS011;34170;54.364;18.582;2022-07-21T01:09:48;7.38;;;4.10;;
48363;SDS011;34170;54.364;18.582;2022-07-21T01:12:17;6.47;;;4.65;;
48363;SDS011;34170;54.364;18.582;2022-07-21T01:14:44;6.22;;;4.43;;
48363;SDS011;34170;54.364;18.582;2022-07-21T01:17:12;7.32;;;5.20;;
48363;SDS011;34170;54.364;18.582;2022-07-21T01:19:39;6.35;;;4.32;;
48363;SDS011;34170;54.364;18.582;2022-07-21T01:22:07;7.38;;;4.30;;
48363;SDS011;34170;54.364;18.582;2022-07-21T01:24:34;6.60;;;4.35;;
48363;SDS011;34170;54.364;18.582;2022-07-21T01:27:02;6.93;;;4.03;;
48363;SDS011;34170;54.364;18.582;2022-07-21T01:29:29;8.00;;;4.93;;
48363;SDS011;34170;54.364;18.582;2022-07-21T01:31:57;5.80;;;4.57;;
48363;SDS011;34170;54.364;18.582;2022-07-21T01:34:24;5.43;;;4.38;;
48363;SDS011;34170;54.364;18.582;2022-07-21T01:36:51;8.02;;;5.10;;
48363;SDS011;34170;54.364;18.582;2022-07-21T01:39:19;10.48;;;4.43;;
48363;SDS011;34170;54.364;18.582;2022-07-21T01:42:05;6.15;;;3.90;;
48363;SDS011;34170;54.364;18.582;2022-07-21T01:44:33;6.47;;;4.82;;
48363;SDS011;34170;54.364;18.582;2022-07-21T01:47:00;5.93;;;4.57;;
48363;SDS011;34170;54.364;18.582;2022-07-21T01:49:28;6.40;;;4.45;;
48363;SDS011;34170;54.364;18.582;2022-07-21T01:51:55;7.60;;;4.80;;
48363;SDS011;34170;54.364;18.582;2022-07-21T01:54:22;6.70;;;4.78;;
48363;SDS011;34170;54.364;18.582;2022-07-21T01:56:50;6.78;;;4.72;;
48363;SDS011;34170;54.364;18.582;2022-07-21T01:59:18;7.05;;;4.75;;
48363;SDS011;34170;54.364;18.582;2022-07-21T02:01:46;7.30;;;4.90;;
48363;SDS011;34170;54.364;18.582;2022-07-21T02:04:14;7.65;;;4.68;;
48363;SDS011;34170;54.364;18.582;2022-07-21T02:06:41;7.65;;;4.60;;
48363;SDS011;34170;54.364;18.582;2022-07-21T02:09:09;11.02;;;4.85;;
48363;SDS011;34170;54.364;18.582;2022-07-21T02:11:37;7.47;;;4.93;;
48363;SDS011;34170;54.364;18.582;2022-07-21T02:14:05;8.07;;;5.10;;
48363;SDS011;34170;54.364;18.582;2022-07-21T02:16:33;8.07;;;5.15;;
48363;SDS011;34170;54.364;18.582;2022-07-21T02:19:01;7.13;;;4.82;;
48363;SDS011;34170;54.364;18.582;2022-07-21T02:21:28;7.30;;;5.05;;
48363;SDS011;34170;54.364;18.582;2022-07-21T02:23:55;6.78;;;5.20;;
48363;SDS011;34170;54.364;18.582;2022-07-21T02:26:23;10.55;;;4.80;;
48363;SDS011;34170;54.364;18.582;2022-07-21T02:28:50;8.45;;;4.95;;
48363;SDS011;34170;54.364;18.582;2022-07-21T02:31:18;9.82;;;5.57;;
48363;SDS011;34170;54.364;18.582;2022-07-21T02:33:45;5.43;;;4.40;;
48363;SDS011;34170;54.364;18.582;2022-07-21T02:36:13;7.90;;;5.30;;
48363;SDS011;34170;54.364;18.582;2022-07-21T02:38:40;7.88;;;5.40;;
48363;SDS011;34170;54.364;18.582;2022-07-21T02:41:07;6.63;;;4.75;;
48363;SDS011;34170;54.364;18.582;2022-07-21T02:43:35;8.00;;;4.97;;
48363;SDS011;34170;54.364;18.582;2022-07-21T02:46:02;8.48;;;5.00;;
48363;SDS011;34170;54.364;18.582;2022-07-21T02:48:30;5.18;;;4.68;;
48363;SDS011;34170;54.364;18.582;2022-07-21T02:50:57;7.03;;;4.53;;
48363;SDS011;34170;54.364;18.582;2022-07-21T02:53:24;7.70;;;5.22;;
48363;SDS011;34170;54.364;18.582;2022-07-21T02:55:52;6.63;;;4.95;;
48363;SDS011;34170;54.364;18.582;2022-07-21T02:58:24;5.90;;;5.03;;
48363;SDS011;34170;54.364;18.582;2022-07-21T03:00:53;5.78;;;4.68;;
48363;SDS011;34170;54.364;18.582;2022-07-21T03:03:23;5.88;;;4.40;;
48363;SDS011;34170;54.364;18.582;2022-07-21T03:05:53;7.35;;;4.97;;
48363;SDS011;34170;54.364;18.582;2022-07-21T03:08:21;8.15;;;5.20;;
48363;SDS011;34170;54.364;18.582;2022-07-21T03:10:49;9.75;;;4.93;;
48363;SDS011;34170;54.364;18.582;2022-07-21T03:13:17;6.53;;;5.03;;
48363;SDS011;34170;54.364;18.582;2022-07-21T03:15:45;7.05;;;5.72;;
48363;SDS011;34170;54.364;18.582;2022-07-21T03:18:12;6.88;;;5.00;;
48363;SDS011;34170;54.364;18.582;2022-07-21T03:20:40;6.85;;;5.07;;
48363;SDS011;34170;54.364;18.582;2022-07-21T03:23:09;6.22;;;5.20;;
48363;SDS011;34170;54.364;18.582;2022-07-21T03:25:36;7.55;;;4.88;;
48363;SDS011;34170;54.364;18.582;2022-07-21T03:28:04;5.63;;;4.40;;
48363;SDS011;34170;54.364;18.582;2022-07-21T03:30:32;6.22;;;5.10;;
48363;SDS011;34170;54.364;18.582;2022-07-21T03:32:59;6.97;;;4.55;;
48363;SDS011;34170;54.364;18.582;2022-07-21T03:35:27;7.30;;;5.03;;
48363;SDS011;34170;54.364;18.582;2022-07-21T03:37:56;6.45;;;5.35;;
48363;SDS011;34170;54.364;18.582;2022-07-21T03:40:26;5.87;;;4.30;;
48363;SDS011;34170;54.364;18.582;2022-07-21T03:42:57;6.93;;;5.07;;
48363;SDS011;34170;54.364;18.582;2022-07-21T03:45:25;8.80;;;5.70;;
48363;SDS011;34170;54.364;18.582;2022-07-21T03:47:57;7.28;;;5.18;;
48363;SDS011;34170;54.364;18.582;2022-07-21T03:50:27;7.45;;;5.68;;
48363;SDS011;34170;54.364;18.582;2022-07-21T03:52:55;10.63;;;5.50;;
48363;SDS011;34170;54.364;18.582;2022-07-21T03:55:23;7.82;;;6.03;;
48363;SDS011;34170;54.364;18.582;2022-07-21T03:57:52;7.78;;;5.68;;
48363;SDS011;34170;54.364;18.582;2022-07-21T04:02:50;7.57;;;5.15;;
48363;SDS011;34170;54.364;18.582;2022-07-21T04:05:18;7.63;;;5.20;;
48363;SDS011;34170;54.364;18.582;2022-07-21T04:07:46;6.88;;;5.45;;
48363;SDS011;34170;54.364;18.582;2022-07-21T04:10:16;9.02;;;7.05;;
48363;SDS011;34170;54.364;18.582;2022-07-21T04:12:45;9.38;;;5.85;;
48363;SDS011;34170;54.364;18.582;2022-07-21T04:15:13;8.60;;;4.97;;
48363;SDS011;34170;54.364;18.582;2022-07-21T04:17:41;10.75;;;5.32;;
48363;SDS011;34170;54.364;18.582;2022-07-21T04:20:08;7.47;;;5.10;;
48363;SDS011;34170;54.364;18.582;2022-07-21T04:22:37;7.78;;;4.68;;
48363;SDS011;34170;54.364;18.582;2022-07-21T04:25:05;7.70;;;5.03;;
48363;SDS011;34170;54.364;18.582;2022-07-21T04:27:34;9.38;;;5.40;;
48363;SDS011;34170;54.364;18.582;2022-07-21T04:30:03;9.65;;;5.25;;
48363;SDS011;34170;54.364;18.582;2022-07-21T04:32:31;6.57;;;4.70;;
48363;SDS011;34170;54.364;18.582;2022-07-21T04:34:59;8.15;;;6.50;;
48363;SDS011;34170;54.364;18.582;2022-07-21T04:37:26;9.13;;;5.30;;
48363;SDS011;34170;54.364;18.582;2022-07-21T04:39:54;7.15;;;4.90;;
48363;SDS011;34170;54.364;18.582;2022-07-21T04:42:21;7.07;;;5.45;;
48363;SDS011;34170;54.364;18.582;2022-07-21T04:44:50;6.95;;;4.60;;
48363;SDS011;34170;54.364;18.582;2022-07-21T04:47:17;8.77;;;5.30;;
48363;SDS011;34170;54.364;18.582;2022-07-21T04:49:45;18.25;;;7.35;;
48363;SDS011;34170;54.364;18.582;2022-07-21T04:52:12;8.52;;;5.13;;
48363;SDS011;34170;54.364;18.582;2022-07-21T04:54:40;7.63;;;5.13;;
48363;SDS011;34170;54.364;18.582;2022-07-21T04:57:07;7.70;;;5.00;;
48363;SDS011;34170;54.364;18.582;2022-07-21T04:59:35;10.57;;;5.20;;
48363;SDS011;34170;54.364;18.582;2022-07-21T05:02:02;7.15;;;4.55;;
48363;SDS011;34170;54.364;18.582;2022-07-21T05:04:30;10.85;;;5.45;;
48363;SDS011;34170;54.364;18.582;2022-07-21T05:06:58;8.05;;;5.25;;
48363;SDS011;34170;54.364;18.582;2022-07-21T05:09:26;9.43;;;5.07;;
48363;SDS011;34170;54.364;18.582;2022-07-21T05:11:53;7.55;;;5.18;;
48363;SDS011;34170;54.364;18.582;2022-07-21T05:14:20;8.98;;;5.25;;
48363;SDS011;34170;54.364;18.582;2022-07-21T05:16:48;6.57;;;4.18;;
48363;SDS011;34170;54.364;18.582;2022-07-21T05:19:15;9.55;;;4.80;;
48363;SDS011;34170;54.364;18.582;2022-07-21T05:21:42;6.13;;;4.53;;
48363;SDS011;34170;54.364;18.582;2022-07-21T05:24:10;6.90;;;4.25;;
48363;SDS011;34170;54.364;18.582;2022-07-21T05:26:37;6.78;;;4.38;;
48363;SDS011;34170;54.364;18.582;2022-07-21T05:29:04;9.70;;;4.47;;
48363;SDS011;34170;54.364;18.582;2022-07-21T05:31:32;5.85;;;3.83;;
48363;SDS011;34170;54.364;18.582;2022-07-21T05:33:59;7.22;;;3.70;;
48363;SDS011;34170;54.364;18.582;2022-07-21T05:36:26;6.88;;;4.13;;
48363;SDS011;34170;54.364;18.582;2022-07-21T05:38:54;7.00;;;4.20;;
48363;SDS011;34170;54.364;18.582;2022-07-21T05:41:22;6.10;;;3.63;;
48363;SDS011;34170;54.364;18.582;2022-07-21T05:43:49;7.95;;;4.53;;
48363;SDS011;34170;54.364;18.582;2022-07-21T05:46:17;5.80;;;4.15;;
48363;SDS011;34170;54.364;18.582;2022-07-21T05:48:44;7.78;;;3.95;;
48363;SDS011;34170;54.364;18.582;2022-07-21T05:51:11;7.18;;;4.03;;
48363;SDS011;34170;54.364;18.582;2022-07-21T05:53:45;5.55;;;3.30;;
48363;SDS011;34170;54.364;18.582;2022-07-21T05:56:12;7.45;;;4.05;;
48363;SDS011;34170;54.364;18.582;2022-07-21T05:58:40;8.05;;;4.18;;
48363;SDS011;34170;54.364;18.582;2022-07-21T06:01:07;5.88;;;3.67;;
48363;SDS011;34170;54.364;18.582;2022-07-21T06:03:35;4.95;;;3.63;;
48363;SDS011;34170;54.364;18.582;2022-07-21T06:06:04;5.60;;;3.10;;
48363;SDS011;34170;54.364;18.582;2022-07-21T06:08:32;9.30;;;3.25;;
48363;SDS011;34170;54.364;18.582;2022-07-21T06:10:59;5.75;;;3.50;;
48363;SDS011;34170;54.364;18.582;2022-07-21T06:13:26;5.22;;;2.95;;
48363;SDS011;34170;54.364;18.582;2022-07-21T06:15:54;5.05;;;3.03;;
48363;SDS011;34170;54.364;18.582;2022-07-21T06:18:21;7.03;;;3.47;;
48363;SDS011;34170;54.364;18.582;2022-07-21T06:20:49;5.95;;;4.13;;
48363;SDS011;34170;54.364;18.582;2022-07-21T06:23:17;6.15;;;3.92;;
48363;SDS011;34170;54.364;18.582;2022-07-21T06:25:44;5.38;;;3.50;;
48363;SDS011;34170;54.364;18.582;2022-07-21T06:28:14;6.55;;;3.47;;
48363;SDS011;34170;54.364;18.582;2022-07-21T06:30:41;5.20;;;3.92;;
48363;SDS011;34170;54.364;18.582;2022-07-21T06:33:09;8.32;;;3.60;;
48363;SDS011;34170;54.364;18.582;2022-07-21T06:35:36;5.35;;;3.13;;
48363;SDS011;34170;54.364;18.582;2022-07-21T06:38:04;5.75;;;3.63;;
48363;SDS011;34170;54.364;18.582;2022-07-21T06:40:38;4.45;;;3.05;;
48363;SDS011;34170;54.364;18.582;2022-07-21T06:43:06;3.90;;;3.47;;
48363;SDS011;34170;54.364;18.582;2022-07-21T06:45:53;9.57;;;3.78;;
48363;SDS011;34170;54.364;18.582;2022-07-21T06:48:21;8.68;;;3.72;;
48363;SDS011;34170;54.364;18.582;2022-07-21T06:50:52;6.95;;;3.53;;
48363;SDS011;34170;54.364;18.582;2022-07-21T06:53:20;6.35;;;3.50;;
48363;SDS011;34170;54.364;18.582;2022-07-21T06:55:49;5.40;;;3.22;;
48363;SDS011;34170;54.364;18.582;2022-07-21T06:58:28;3.78;;;3.35;;
48363;SDS011;34170;54.364;18.582;2022-07-21T07:01:02;5.75;;;3.55;;
48363;SDS011;34170;54.364;18.582;2022-07-21T07:03:30;5.97;;;3.83;;
48363;SDS011;34170;54.364;18.582;2022-07-21T07:05:57;4.07;;;3.67;;
48363;SDS011;34170;54.364;18.582;2022-07-21T07:08:24;7.72;;;3.35;;
48363;SDS011;34170;54.364;18.582;2022-07-21T07:10:51;7.18;;;3.50;;
48363;SDS011;34170;54.364;18.582;2022-07-21T07:13:19;7.25;;;3.28;;
48363;SDS011;34170;54.364;18.582;2022-07-21T07:16:06;5.53;;;3.10;;
48363;SDS011;34170;54.364;18.582;2022-07-21T07:18:34;8.40;;;4.10;;
48363;SDS011;34170;54.364;18.582;2022-07-21T07:21:03;5.67;;;3.60;;
48363;SDS011;34170;54.364;18.582;2022-07-21T07:23:37;7.70;;;4.32;;
48363;SDS011;34170;54.364;18.582;2022-07-21T07:26:06;6.40;;;4.00;;
48363;SDS011;34170;54.364;18.582;2022-07-21T07:28:34;8.35;;;4.43;;
48363;SDS011;34170;54.364;18.582;2022-07-21T07:31:02;8.02;;;3.95;;
48363;SDS011;34170;54.364;18.582;2022-07-21T07:33:29;6.10;;;3.70;;
48363;SDS011;34170;54.364;18.582;2022-07-21T07:35:57;8.15;;;3.85;;
48363;SDS011;34170;54.364;18.582;2022-07-21T07:38:24;5.60;;;3.65;;
48363;SDS011;34170;54.364;18.582;2022-07-21T07:40:52;9.80;;;4.13;;
48363;SDS011;34170;54.364;18.582;2022-07-21T07:43:19;9.65;;;4.38;;
48363;SDS011;34170;54.364;18.582;2022-07-21T07:45:47;8.95;;;3.75;;
48363;SDS011;34170;54.364;18.582;2022-07-21T07:48:14;5.10;;;3.65;;
48363;SDS011;34170;54.364;18.582;2022-07-21T07:50:41;7.82;;;4.28;;
48363;SDS011;34170;54.364;18.582;2022-07-21T07:53:09;5.57;;;3.92;;
48363;SDS011;34170;54.364;18.582;2022-07-21T07:55:36;4.30;;;3.90;;
48363;SDS011;34170;54.364;18.582;2022-07-21T07:58:03;4.50;;;3.80;;
48363;SDS011;34170;54.364;18.582;2022-07-21T08:00:31;9.02;;;4.13;;
48363;SDS011;34170;54.364;18.582;2022-07-21T08:03:18;4.85;;;3.95;;
48363;SDS011;34170;54.364;18.582;2022-07-21T08:05:46;8.43;;;4.28;;
48363;SDS011;34170;54.364;18.582;2022-07-21T08:08:14;6.70;;;4.53;;
48363;SDS011;34170;54.364;18.582;2022-07-21T08:10:42;6.15;;;4.00;;
48363;SDS011;34170;54.364;18.582;2022-07-21T08:13:12;6.65;;;3.83;;
48363;SDS011;34170;54.364;18.582;2022-07-21T08:15:41;8.30;;;4.07;;
48363;SDS011;34170;54.364;18.582;2022-07-21T08:18:09;6.20;;;4.25;;
48363;SDS011;34170;54.364;18.582;2022-07-21T08:20:37;4.32;;;3.40;;
48363;SDS011;34170;54.364;18.582;2022-07-21T08:23:05;6.93;;;4.00;;
48363;SDS011;34170;54.364;18.582;2022-07-21T08:25:33;8.48;;;3.53;;
48363;SDS011;34170;54.364;18.582;2022-07-21T08:28:01;4.80;;;4.00;;
48363;SDS011;34170;54.364;18.582;2022-07-21T08:30:28;6.97;;;3.85;;
48363;SDS011;34170;54.364;18.582;2022-07-21T08:32:57;6.25;;;4.20;;
48363;SDS011;34170;54.364;18.582;2022-07-21T08:35:26;7.07;;;4.15;;
48363;SDS011;34170;54.364;18.582;2022-07-21T08:37:58;6.90;;;3.97;;
48363;SDS011;34170;54.364;18.582;2022-07-21T08:40:30;6.22;;;4.00;;
48363;SDS011;34170;54.364;18.582;2022-07-21T08:42:59;8.90;;;3.78;;
48363;SDS011;34170;54.364;18.582;2022-07-21T08:45:27;6.10;;;4.05;;
48363;SDS011;34170;54.364;18.582;2022-07-21T08:47:55;7.93;;;4.00;;
48363;SDS011;34170;54.364;18.582;2022-07-21T08:50:25;7.88;;;4.20;;
48363;SDS011;34170;54.364;18.582;2022-07-21T08:52:58;6.28;;;3.60;;
48363;SDS011;34170;54.364;18.582;2022-07-21T08:55:30;5.65;;;3.90;;
48363;SDS011;34170;54.364;18.582;2022-07-21T08:58:00;6.95;;;3.85;;
48363;SDS011;34170;54.364;18.582;2022-07-21T09:00:32;5.57;;;3.50;;
48363;SDS011;34170;54.364;18.582;2022-07-21T09:05:37;7.85;;;4.25;;
48363;SDS011;34170;54.364;18.582;2022-07-21T09:08:04;4.35;;;3.40;;
48363;SDS011;34170;54.364;18.582;2022-07-21T09:10:32;6.30;;;3.67;;
48363;SDS011;34170;54.364;18.582;2022-07-21T09:13:04;5.38;;;3.88;;
48363;SDS011;34170;54.364;18.582;2022-07-21T09:15:34;6.55;;;3.78;;
48363;SDS011;34170;54.364;18.582;2022-07-21T09:20:50;8.27;;;3.80;;
48363;SDS011;34170;54.364;18.582;2022-07-21T09:23:21;7.00;;;3.55;;
48363;SDS011;34170;54.364;18.582;2022-07-21T09:25:53;4.95;;;3.70;;
48363;SDS011;34170;54.364;18.582;2022-07-21T09:28:28;6.13;;;3.72;;
48363;SDS011;34170;54.364;18.582;2022-07-21T09:31:04;6.32;;;4.22;;
48363;SDS011;34170;54.364;18.582;2022-07-21T09:41:09;13.50;;;4.22;;
48363;SDS011;34170;54.364;18.582;2022-07-21T09:43:42;7.65;;;3.65;;
48363;SDS011;34170;54.364;18.582;2022-07-21T09:46:15;6.90;;;3.88;;
48363;SDS011;34170;54.364;18.582;2022-07-21T09:48:46;6.30;;;3.50;;
48363;SDS011;34170;54.364;18.582;2022-07-21T09:56:40;8.50;;;3.88;;
48363;SDS011;34170;54.364;18.582;2022-07-21T09:59:10;4.65;;;4.03;;
48363;SDS011;34170;54.364;18.582;2022-07-21T10:01:38;10.15;;;4.07;;
48363;SDS011;34170;54.364;18.582;2022-07-21T10:04:06;6.60;;;3.42;;
48363;SDS011;34170;54.364;18.582;2022-07-21T10:06:35;6.63;;;3.67;;
48363;SDS011;34170;54.364;18.582;2022-07-21T10:09:06;7.97;;;3.90;;
48363;SDS011;34170;54.364;18.582;2022-07-21T10:11:39;6.07;;;3.72;;
48363;SDS011;34170;54.364;18.582;2022-07-21T10:14:12;6.30;;;3.65;;
48363;SDS011;34170;54.364;18.582;2022-07-21T10:16:40;10.18;;;3.72;;
48363;SDS011;34170;54.364;18.582;2022-07-21T10:19:21;8.55;;;3.90;;
48363;SDS011;34170;54.364;18.582;2022-07-21T10:24:47;7.63;;;3.40;;
48363;SDS011;34170;54.364;18.582;2022-07-21T10:27:15;6.97;;;3.80;;
48363;SDS011;34170;54.364;18.582;2022-07-21T10:29:48;8.20;;;3.88;;
48363;SDS011;34170;54.364;18.582;2022-07-21T10:32:30;7.20;;;3.67;;
48363;SDS011;34170;54.364;18.582;2022-07-21T10:45:30;7.50;;;4.40;;
48363;SDS011;34170;54.364;18.582;2022-07-21T10:48:05;7.53;;;3.72;;
48363;SDS011;34170;54.364;18.582;2022-07-21T10:50:35;7.00;;;3.80;;
48363;SDS011;34170;54.364;18.582;2022-07-21T10:53:07;5.85;;;3.63;;
48363;SDS011;34170;54.364;18.582;2022-07-21T10:56:26;9.88;;;3.83;;
48363;SDS011;34170;54.364;18.582;2022-07-21T10:58:36;8.13;;;4.00;;
48363;SDS011;34170;54.364;18.582;2022-07-21T11:01:26;16.33;;;3.80;;
48363;SDS011;34170;54.364;18.582;2022-07-21T11:04:12;6.47;;;3.97;;
48363;SDS011;34170;54.364;18.582;2022-07-21T11:06:44;7.78;;;3.67;;
48363;SDS011;34170;54.364;18.582;2022-07-21T11:09:12;7.28;;;3.70;;
48363;SDS011;34170;54.364;18.582;2022-07-21T11:14:17;6.53;;;3.97;;
48363;SDS011;34170;54.364;18.582;2022-07-21T11:19:34;4.25;;;3.38;;
48363;SDS011;34170;54.364;18.582;2022-07-21T11:22:13;5.65;;;3.75;;
48363;SDS011;34170;54.364;18.582;2022-07-21T11:24:43;5.78;;;3.60;;
48363;SDS011;34170;54.364;18.582;2022-07-21T11:27:13;4.05;;;3.22;;
48363;SDS011;34170;54.364;18.582;2022-07-21T11:29:53;4.20;;;3.38;;
48363;SDS011;34170;54.364;18.582;2022-07-21T11:32:24;6.25;;;3.50;;
48363;SDS011;34170;54.364;18.582;2022-07-21T11:34:54;6.65;;;4.57;;
48363;SDS011;34170;54.364;18.582;2022-07-21T11:37:30;8.65;;;3.83;;
48363;SDS011;34170;54.364;18.582;2022-07-21T11:40:07;4.32;;;3.22;;
48363;SDS011;34170;54.364;18.582;2022-07-21T11:42:39;5.35;;;3.70;;
48363;SDS011;34170;54.364;18.582;2022-07-21T11:45:09;6.47;;;3.60;;
48363;SDS011;34170;54.364;18.582;2022-07-21T11:47:37;9.65;;;3.75;;
48363;SDS011;34170;54.364;18.582;2022-07-21T11:50:06;7.55;;;3.67;;
48363;SDS011;34170;54.364;18.582;2022-07-21T11:52:37;4.75;;;3.50;;
48363;SDS011;34170;54.364;18.582;2022-07-21T11:55:06;5.77;;;3.50;;
48363;SDS011;34170;54.364;18.582;2022-07-21T11:57:35;5.63;;;3.22;;
48363;SDS011;34170;54.364;18.582;2022-07-21T12:00:04;9.68;;;3.75;;
48363;SDS011;34170;54.364;18.582;2022-07-21T12:02:40;7.00;;;3.78;;
48363;SDS011;34170;54.364;18.582;2022-07-21T12:05:08;6.93;;;3.80;;
48363;SDS011;34170;54.364;18.582;2022-07-21T12:07:46;7.82;;;3.63;;
48363;SDS011;34170;54.364;18.582;2022-07-21T12:10:22;6.75;;;3.53;;
48363;SDS011;34170;54.364;18.582;2022-07-21T12:12:59;6.63;;;3.45;;
48363;SDS011;34170;54.364;18.582;2022-07-21T12:15:32;5.55;;;3.60;;
48363;SDS011;34170;54.364;18.582;2022-07-21T12:18:03;7.50;;;3.45;;
48363;SDS011;34170;54.364;18.582;2022-07-21T12:20:36;5.90;;;3.30;;
48363;SDS011;34170;54.364;18.582;2022-07-21T12:23:18;6.03;;;3.75;;
48363;SDS011;34170;54.364;18.582;2022-07-21T12:25:48;5.53;;;3.40;;
48363;SDS011;34170;54.364;18.582;2022-07-21T12:28:40;7.22;;;3.67;;
48363;SDS011;34170;54.364;18.582;2022-07-21T12:31:11;5.30;;;3.58;;
48363;SDS011;34170;54.364;18.582;2022-07-21T12:33:41;4.47;;;3.83;;
48363;SDS011;34170;54.364;18.582;2022-07-21T12:36:29;7.43;;;3.30;;
48363;SDS011;34170;54.364;18.582;2022-07-21T12:38:56;4.90;;;3.50;;
48363;SDS011;34170;54.364;18.582;2022-07-21T12:41:24;5.47;;;3.35;;
48363;SDS011;34170;54.364;18.582;2022-07-21T12:43:58;6.18;;;3.58;;
48363;SDS011;34170;54.364;18.582;2022-07-21T12:46:28;4.57;;;3.10;;
48363;SDS011;34170;54.364;18.582;2022-07-21T12:49:04;8.00;;;3.90;;
48363;SDS011;34170;54.364;18.582;2022-07-21T12:51:39;8.07;;;3.80;;
48363;SDS011;34170;54.364;18.582;2022-07-21T12:56:36;8.98;;;4.07;;
48363;SDS011;34170;54.364;18.582;2022-07-21T12:59:03;8.20;;;3.38;;
48363;SDS011;34170;54.364;18.582;2022-07-21T13:01:32;7.45;;;3.30;;
48363;SDS011;34170;54.364;18.582;2022-07-21T13:04:02;7.03;;;3.23;;
48363;SDS011;34170;54.364;18.582;2022-07-21T13:06:30;4.85;;;3.08;;
48363;SDS011;34170;54.364;18.582;2022-07-21T13:08:58;5.65;;;3.50;;
48363;SDS011;34170;54.364;18.582;2022-07-21T13:11:26;7.72;;;3.63;;
48363;SDS011;34170;54.364;18.582;2022-07-21T13:13:53;5.45;;;3.13;;
48363;SDS011;34170;54.364;18.582;2022-07-21T13:16:24;6.38;;;3.45;;
48363;SDS011;34170;54.364;18.582;2022-07-21T13:18:52;7.57;;;3.10;;
48363;SDS011;34170;54.364;18.582;2022-07-21T13:21:20;8.48;;;3.78;;
48363;SDS011;34170;54.364;18.582;2022-07-21T13:23:47;4.70;;;3.28;;
48363;SDS011;34170;54.364;18.582;2022-07-21T13:26:14;6.68;;;3.60;;
48363;SDS011;34170;54.364;18.582;2022-07-21T13:28:42;8.82;;;3.80;;
48363;SDS011;34170;54.364;18.582;2022-07-21T13:31:09;5.93;;;3.80;;
48363;SDS011;34170;54.364;18.582;2022-07-21T13:33:37;5.32;;;3.72;;
48363;SDS011;34170;54.364;18.582;2022-07-21T13:36:06;6.30;;;3.92;;
48363;SDS011;34170;54.364;18.582;2022-07-21T13:38:35;5.10;;;3.77;;
48363;SDS011;34170;54.364;18.582;2022-07-21T13:41:03;5.00;;;4.20;;
48363;SDS011;34170;54.364;18.582;2022-07-21T13:43:51;10.75;;;3.58;;
48363;SDS011;34170;54.364;18.582;2022-07-21T13:46:20;6.25;;;3.67;;
48363;SDS011;34170;54.364;18.582;2022-07-21T13:48:47;9.15;;;3.92;;
48363;SDS011;34170;54.364;18.582;2022-07-21T13:51:15;6.57;;;3.90;;
48363;SDS011;34170;54.364;18.582;2022-07-21T13:53:45;6.25;;;3.80;;
48363;SDS011;34170;54.364;18.582;2022-07-21T13:56:14;4.60;;;3.50;;
48363;SDS011;34170;54.364;18.582;2022-07-21T13:58:42;4.55;;;3.40;;
48363;SDS011;34170;54.364;18.582;2022-07-21T14:01:10;5.90;;;4.03;;
48363;SDS011;34170;54.364;18.582;2022-07-21T14:03:39;8.25;;;3.42;;
48363;SDS011;34170;54.364;18.582;2022-07-21T14:06:07;6.50;;;4.43;;
48363;SDS011;34170;54.364;18.582;2022-07-21T14:08:34;8.00;;;3.65;;
48363;SDS011;34170;54.364;18.582;2022-07-21T14:11:02;7.50;;;3.65;;
48363;SDS011;34170;54.364;18.582;2022-07-21T14:13:32;7.50;;;3.75;;
48363;SDS011;34170;54.364;18.582;2022-07-21T14:16:00;8.38;;;3.65;;
48363;SDS011;34170;54.364;18.582;2022-07-21T14:18:28;7.68;;;3.45;;
48363;SDS011;34170;54.364;18.582;2022-07-21T14:20:56;9.43;;;4.18;;
48363;SDS011;34170;54.364;18.582;2022-07-21T14:23:24;7.05;;;4.30;;
48363;SDS011;34170;54.364;18.582;2022-07-21T14:25:52;5.10;;;3.65;;
48363;SDS011;34170;54.364;18.582;2022-07-21T14:28:20;6.03;;;3.60;;
48363;SDS011;34170;54.364;18.582;2022-07-21T14:30:48;7.35;;;3.95;;
48363;SDS011;34170;54.364;18.582;2022-07-21T14:33:15;6.40;;;3.60;;
48363;SDS011;34170;54.364;18.582;2022-07-21T14:35:43;10.80;;;4.45;;
48363;SDS011;34170;54.364;18.582;2022-07-21T14:38:10;7.93;;;4.05;;
48363;SDS011;34170;54.364;18.582;2022-07-21T14:40:38;7.90;;;4.03;;
48363;SDS011;34170;54.364;18.582;2022-07-21T14:43:05;4.97;;;3.53;;
48363;SDS011;34170;54.364;18.582;2022-07-21T14:45:33;9.20;;;3.80;;
48363;SDS011;34170;54.364;18.582;2022-07-21T14:48:00;5.05;;;3.67;;
48363;SDS011;34170;54.364;18.582;2022-07-21T14:50:28;11.35;;;4.05;;
48363;SDS011;34170;54.364;18.582;2022-07-21T14:52:55;6.18;;;3.70;;
48363;SDS011;34170;54.364;18.582;2022-07-21T14:55:24;8.10;;;3.70;;
48363;SDS011;34170;54.364;18.582;2022-07-21T14:57:52;10.55;;;4.00;;
48363;SDS011;34170;54.364;18.582;2022-07-21T15:00:20;5.45;;;3.72;;
48363;SDS011;34170;54.364;18.582;2022-07-21T15:02:50;5.68;;;3.80;;
48363;SDS011;34170;54.364;18.582;2022-07-21T15:05:20;8.70;;;4.22;;
48363;SDS011;34170;54.364;18.582;2022-07-21T15:07:47;6.53;;;3.85;;
48363;SDS011;34170;54.364;18.582;2022-07-21T15:10:15;6.20;;;3.78;;
48363;SDS011;34170;54.364;18.582;2022-07-21T15:12:42;6.80;;;4.18;;
48363;SDS011;34170;54.364;18.582;2022-07-21T15:15:10;6.13;;;3.80;;
48363;SDS011;34170;54.364;18.582;2022-07-21T15:17:37;6.93;;;3.50;;
48363;SDS011;34170;54.364;18.582;2022-07-21T15:20:05;7.25;;;3.35;;
48363;SDS011;34170;54.364;18.582;2022-07-21T15:22:39;5.18;;;3.63;;
48363;SDS011;34170;54.364;18.582;2022-07-21T15:25:08;6.05;;;3.67;;
48363;SDS011;34170;54.364;18.582;2022-07-21T15:27:41;8.70;;;3.47;;